Time;durP1;ratioP1;P1;durP2;ratioP2;P2;SDS_P1;SDS_P2;PMS_P1;PMS_P2;Temp;Humidity;BMP_temperature;BMP_pressure;BME280_temperature;BME280_humidity;BME280_pressure;Samples;Min_cycle;Max_cycle;Signal;HPM_P1;HPM_P2
2022/06/29 00:00:53;;;;;;;1.40;0.57;;;23.60;59.50;;;;;;4493393;31;20533;-67
2022/06/29 00:03:19;;;;;;;1.42;0.70;;;23.50;59.50;;;;;;4493619;31;20616;-67
2022/06/29 00:05:45;;;;;;;1.70;0.50;;;23.50;59.40;;;;;;4493030;31;20116;-68
2022/06/29 00:08:10;;;;;;;1.55;0.40;;;23.50;60.40;;;;;;4493549;31;20057;-67
2022/06/29 00:10:37;;;;;;;0.80;0.40;;;23.50;59.50;;;;;;4492930;31;20112;-67
2022/06/29 00:13:04;;;;;;;0.70;0.45;;;23.50;59.50;;;;;;4492182;31;20069;-67
2022/06/29 00:15:31;;;;;;;1.58;0.50;;;23.50;59.50;;;;;;4493416;31;20101;-67
2022/06/29 00:17:57;;;;;;;1.30;0.65;;;23.50;59.50;;;;;;4493288;31;20486;-67
2022/06/29 00:20:23;;;;;;;1.45;0.40;;;23.50;59.50;;;;;;4493091;31;20080;-67
2022/06/29 00:22:49;;;;;;;1.60;0.40;;;23.50;59.50;;;;;;4493032;31;20203;-67
2022/06/29 00:25:16;;;;;;;1.60;0.57;;;23.50;60.40;;;;;;4493065;31;20445;-67
2022/06/29 00:27:42;;;;;;;1.15;0.40;;;23.50;59.50;;;;;;4492986;31;20095;-67
2022/06/29 00:30:09;;;;;;;1.10;0.50;;;23.50;59.50;;;;;;4492584;31;20077;-67
2022/06/29 00:32:35;;;;;;;0.77;0.50;;;23.50;59.50;;;;;;4491931;31;20136;-67
2022/06/29 00:35:02;;;;;;;1.35;0.50;;;23.50;59.50;;;;;;4492918;31;20101;-67
2022/06/29 00:37:28;;;;;;;1.23;0.40;;;23.50;59.50;;;;;;4492832;31;20594;-67
2022/06/29 00:39:55;;;;;;;1.88;0.77;;;23.50;59.50;;;;;;4493063;31;20089;-67
2022/06/29 00:42:21;;;;;;;1.02;0.50;;;23.40;59.50;;;;;;4492939;31;20143;-67
2022/06/29 00:44:47;;;;;;;1.10;0.50;;;23.40;59.50;;;;;;4492567;31;20065;-67
2022/06/29 00:47:13;;;;;;;2.05;0.60;;;23.40;59.60;;;;;;4491964;31;20084;-67
2022/06/29 00:49:38;;;;;;;1.95;0.63;;;23.40;59.50;;;;;;4492287;31;20077;-67
2022/06/29 00:52:09;;;;;;;0.68;0.30;;;23.40;59.50;;;;;;4492945;31;20194;-66
2022/06/29 00:54:52;;;;;;;1.08;0.45;;;23.40;59.60;;;;;;4492526;31;20117;-67
2022/06/29 00:57:20;;;;;;;1.48;0.70;;;23.40;59.60;;;;;;4492666;31;20158;-67
2022/06/29 00:59:52;;;;;;;1.35;0.60;;;23.40;59.60;;;;;;4492555;31;20580;-67
2022/06/29 01:02:21;;;;;;;1.15;0.43;;;23.40;59.60;;;;;;4492460;31;20098;-67
2022/06/29 01:04:49;;;;;;;1.58;0.50;;;23.40;59.60;;;;;;4492449;31;20096;-67
2022/06/29 01:07:16;;;;;;;0.88;0.55;;;23.40;59.60;;;;;;4492670;31;20073;-67
2022/06/29 01:09:43;;;;;;;1.50;0.43;;;23.40;59.60;;;;;;4492577;31;20182;-67
2022/06/29 01:12:09;;;;;;;1.38;0.45;;;23.40;59.60;;;;;;4492369;31;20073;-67
2022/06/29 01:14:35;;;;;;;0.88;0.32;;;23.40;59.60;;;;;;4492772;31;20190;-67
2022/06/29 01:17:03;;;;;;;0.80;0.40;;;23.40;59.60;;;;;;4490957;31;20081;-66
2022/06/29 01:19:29;;;;;;;1.38;0.43;;;23.40;59.60;;;;;;4492335;31;20065;-67
2022/06/29 01:21:58;;;;;;;1.23;0.52;;;23.40;59.60;;;;;;4491969;31;20245;-67
2022/06/29 01:24:24;;;;;;;0.63;0.47;;;23.40;59.60;;;;;;4492282;31;20146;-67
2022/06/29 01:26:50;;;;;;;1.23;0.45;;;23.40;59.60;;;;;;4492173;31;20104;-67
2022/06/29 01:29:17;;;;;;;1.27;0.43;;;23.40;59.60;;;;;;4492100;31;20484;-67
2022/06/29 01:31:44;;;;;;;0.98;0.40;;;23.40;59.60;;;;;;4492156;31;20514;-67
2022/06/29 01:34:09;;;;;;;0.80;0.40;;;23.40;59.60;;;;;;4492281;31;20077;-67
2022/06/29 01:36:36;;;;;;;0.82;0.50;;;23.40;59.70;;;;;;4492073;31;20525;-67
2022/06/29 01:39:02;;;;;;;0.85;0.40;;;23.30;59.60;;;;;;4491858;31;20081;-66
2022/06/29 01:41:28;;;;;;;1.75;0.50;;;23.30;59.50;;;;;;4492004;31;20083;-67
2022/06/29 01:43:53;;;;;;;1.42;0.63;;;23.40;59.60;;;;;;4491564;31;20062;-67
2022/06/29 01:46:19;;;;;;;0.98;0.50;;;23.30;59.60;;;;;;4492060;31;20136;-66
2022/06/29 01:48:45;;;;;;;0.90;0.47;;;23.30;59.50;;;;;;4491769;31;20115;-67
2022/06/29 01:51:11;;;;;;;1.48;0.57;;;23.30;59.60;;;;;;4492224;31;20162;-67
2022/06/29 01:53:37;;;;;;;1.05;0.50;;;23.30;59.50;;;;;;4491976;32;20227;-67
2022/06/29 01:56:03;;;;;;;0.93;0.50;;;23.30;59.60;;;;;;4490562;32;20065;-66
2022/06/29 01:58:28;;;;;;;0.50;0.30;;;23.30;59.60;;;;;;4491636;32;20076;-67
2022/06/29 02:00:54;;;;;;;0.60;0.35;;;23.30;59.60;;;;;;4491973;32;20154;-67
2022/06/29 02:03:20;;;;;;;0.30;0.28;;;23.30;59.60;;;;;;4491813;32;20089;-67
2022/06/29 02:05:47;;;;;;;1.10;0.40;;;23.30;59.60;;;;;;4492094;32;20534;-67
2022/06/29 02:08:13;;;;;;;0.80;0.45;;;23.30;59.60;;;;;;4491846;32;20277;-67
2022/06/29 02:10:39;;;;;;;1.08;0.40;;;23.30;59.60;;;;;;4491716;32;20100;-66
2022/06/29 02:13:04;;;;;;;1.23;0.40;;;23.30;59.60;;;;;;4491746;32;20542;-66
2022/06/29 02:15:30;;;;;;;0.60;0.30;;;23.30;59.60;;;;;;4492010;32;20070;-67
2022/06/29 02:17:57;;;;;;;0.90;0.30;;;23.30;59.60;;;;;;4490294;32;20438;-67
2022/06/29 02:20:23;;;;;;;0.55;0.30;;;23.30;59.60;;;;;;4491985;32;20069;-67
2022/06/29 02:22:49;;;;;;;1.13;0.35;;;23.30;59.60;;;;;;4491726;32;20069;-67
2022/06/29 02:25:15;;;;;;;1.25;0.50;;;23.30;59.60;;;;;;4491932;32;20158;-67
2022/06/29 02:27:41;;;;;;;3.85;0.40;;;23.30;59.60;;;;;;4491648;32;20088;-67
2022/06/29 02:30:12;;;;;;;1.13;0.50;;;23.30;59.60;;;;;;4491322;32;20084;-67
2022/06/29 02:35:22;;;;;;;0.52;0.20;;;23.30;59.60;;;;;;4491954;32;20484;-67
2022/06/29 02:37:48;;;;;;;0.80;0.40;;;23.30;59.60;;;;;;4490476;32;20081;-67
2022/06/29 02:40:14;;;;;;;0.98;0.38;;;23.30;59.60;;;;;;4491358;32;20123;-67
2022/06/29 02:42:41;;;;;;;0.80;0.30;;;23.30;59.60;;;;;;4491597;32;20421;-67
2022/06/29 02:45:07;;;;;;;0.55;0.30;;;23.20;59.60;;;;;;4491359;32;20077;-66
2022/06/29 02:47:32;;;;;;;1.10;0.40;;;23.20;59.60;;;;;;4490504;32;20269;-67
2022/06/29 02:49:58;;;;;;;0.50;0.35;;;23.20;59.60;;;;;;4491345;32;20065;-66
2022/06/29 02:52:24;;;;;;;0.60;0.30;;;23.20;59.60;;;;;;4491540;32;20211;-67
2022/06/29 02:54:52;;;;;;;0.98;0.40;;;23.20;59.60;;;;;;4491493;31;20514;-66
2022/06/29 02:57:20;;;;;;;1.98;0.47;;;23.20;59.60;;;;;;4494110;31;20559;-67
2022/06/29 02:59:46;;;;;;;1.02;0.40;;;23.20;59.60;;;;;;4494294;31;20603;-67
2022/06/29 03:02:12;;;;;;;2.45;0.40;;;23.20;59.60;;;;;;4494297;31;20088;-67
2022/06/29 03:04:38;;;;;;;1.27;0.30;;;23.20;60.50;;;;;;4494528;31;20073;-67
2022/06/29 03:07:04;;;;;;;0.63;0.30;;;23.20;59.60;;;;;;4494250;31;20118;-67
2022/06/29 03:09:30;;;;;;;1.50;0.30;;;23.20;59.60;;;;;;4494090;31;20053;-66
2022/06/29 03:11:56;;;;;;;0.75;0.40;;;23.20;59.60;;;;;;4494161;31;20187;-66
2022/06/29 03:14:22;;;;;;;0.90;0.43;;;23.20;59.70;;;;;;4494168;31;20085;-66
2022/06/29 03:16:47;;;;;;;0.63;0.40;;;23.20;59.70;;;;;;4493854;31;20174;-66
2022/06/29 03:19:14;;;;;;;0.60;0.40;;;23.20;59.70;;;;;;4493969;31;20540;-67
2022/06/29 03:21:40;;;;;;;1.00;0.35;;;23.20;59.70;;;;;;4494003;31;20077;-67
2022/06/29 03:24:06;;;;;;;1.15;0.30;;;23.10;59.60;;;;;;4494155;31;20120;-66
2022/06/29 03:26:31;;;;;;;1.15;0.50;;;23.20;59.70;;;;;;4493648;31;20065;-67
2022/06/29 03:28:57;;;;;;;1.15;0.40;;;23.10;59.70;;;;;;4494073;31;20065;-67
2022/06/29 03:31:23;;;;;;;0.60;0.30;;;23.10;59.70;;;;;;4493876;31;20077;-66
2022/06/29 03:33:49;;;;;;;0.60;0.30;;;23.10;59.70;;;;;;4493619;31;20189;-66
2022/06/29 03:36:15;;;;;;;1.20;0.30;;;23.10;59.70;;;;;;4493587;31;20218;-67
2022/06/29 03:38:41;;;;;;;0.93;0.40;;;23.10;59.70;;;;;;4493986;31;20166;-66
2022/06/29 03:41:07;;;;;;;0.70;0.38;;;23.10;59.70;;;;;;4493475;31;20085;-66
2022/06/29 03:43:33;;;;;;;0.73;0.30;;;23.10;59.70;;;;;;4492390;31;20468;-67
2022/06/29 03:45:59;;;;;;;0.50;0.20;;;23.10;59.70;;;;;;4494055;31;20076;-67
2022/06/29 03:48:24;;;;;;;0.40;0.30;;;23.10;59.70;;;;;;4493531;31;20108;-67
2022/06/29 03:50:50;;;;;;;0.60;0.40;;;23.10;59.70;;;;;;4493512;31;20077;-66
2022/06/29 03:53:16;;;;;;;0.43;0.30;;;23.10;59.70;;;;;;4493775;31;20112;-67
2022/06/29 03:55:42;;;;;;;1.10;0.32;;;23.10;59.70;;;;;;4493238;31;20195;-67
2022/06/29 03:58:08;;;;;;;0.75;0.40;;;23.10;59.80;;;;;;4493212;31;20092;-66
2022/06/29 04:00:34;;;;;;;0.73;0.20;;;23.10;59.80;;;;;;4493488;31;20077;-67
2022/06/29 04:03:00;;;;;;;0.30;0.20;;;23.10;59.80;;;;;;4493217;31;20065;-66
2022/06/29 04:05:30;;;;;;;0.88;0.30;;;23.10;59.80;;;;;;4493398;31;20073;-66
2022/06/29 04:07:56;;;;;;;0.40;0.30;;;23.10;59.80;;;;;;4493179;31;20119;-66
2022/06/29 04:10:22;;;;;;;0.47;0.38;;;23.10;59.80;;;;;;4493496;31;20150;-66
2022/06/29 04:12:47;;;;;;;0.57;0.30;;;23.10;59.80;;;;;;4493222;31;20087;-66
2022/06/29 04:15:13;;;;;;;0.30;0.30;;;23.10;60.60;;;;;;4493226;31;20084;-67
2022/06/29 04:17:39;;;;;;;0.90;0.30;;;23.10;59.80;;;;;;4493082;31;20073;-67
2022/06/29 04:20:06;;;;;;;0.75;0.32;;;23.10;59.80;;;;;;4493302;31;20627;-66
2022/06/29 04:22:32;;;;;;;0.40;0.32;;;23.10;59.80;;;;;;4493344;31;20491;-67
2022/06/29 04:24:59;;;;;;;0.93;0.30;;;23.00;59.70;;;;;;4492756;31;20080;-66
2022/06/29 04:27:25;;;;;;;0.70;0.50;;;23.10;59.80;;;;;;4492726;31;20089;-67
2022/06/29 04:29:51;;;;;;;0.32;0.20;;;23.10;59.80;;;;;;4492909;31;20162;-66
2022/06/29 04:32:16;;;;;;;1.05;0.30;;;23.00;59.80;;;;;;4492954;31;20158;-67
2022/06/29 04:34:42;;;;;;;0.95;0.30;;;23.00;59.80;;;;;;4492929;31;20077;-66
2022/06/29 04:37:08;;;;;;;0.80;0.30;;;23.00;59.70;;;;;;4493085;31;20456;-67
2022/06/29 04:39:34;;;;;;;1.00;0.40;;;23.00;59.80;;;;;;4493106;31;20201;-67
2022/06/29 04:42:00;;;;;;;0.30;0.20;;;23.00;59.70;;;;;;4493052;31;20083;-66
2022/06/29 04:44:26;;;;;;;1.05;0.43;;;23.10;59.90;;;;;;4492276;31;20158;-67
2022/06/29 04:46:55;;;;;;;0.93;0.40;;;23.00;59.80;;;;;;4492462;31;20167;-66
2022/06/29 04:49:21;;;;;;;1.25;0.25;;;23.00;59.80;;;;;;4492264;31;20065;-67
2022/06/29 04:51:47;;;;;;;1.85;0.32;;;23.00;59.90;;;;;;4492614;31;20081;-66
2022/06/29 04:54:12;;;;;;;0.40;0.20;;;23.00;59.80;;;;;;4492577;31;20124;-67
2022/06/29 04:56:38;;;;;;;0.63;0.30;;;23.00;59.80;;;;;;4492306;31;20484;-67
2022/06/29 04:59:04;;;;;;;0.85;0.30;;;23.00;59.90;;;;;;4492261;31;20080;-67
2022/06/29 05:01:30;;;;;;;1.00;0.55;;;23.00;59.90;;;;;;4492488;31;20465;-67
2022/06/29 05:03:59;;;;;;;0.52;0.38;;;23.00;59.90;;;;;;4492474;31;20174;-66
2022/06/29 05:06:25;;;;;;;0.68;0.30;;;23.00;59.90;;;;;;4492497;31;20124;-66
2022/06/29 05:08:52;;;;;;;0.40;0.30;;;23.00;59.90;;;;;;4492326;31;20178;-66
2022/06/29 05:11:18;;;;;;;0.43;0.30;;;23.00;59.90;;;;;;4492430;31;20213;-66
2022/06/29 05:13:46;;;;;;;0.50;0.30;;;23.00;59.90;;;;;;4492286;31;20109;-66
2022/06/29 05:16:13;;;;;;;0.95;0.30;;;23.00;59.90;;;;;;4492335;31;20521;-67
2022/06/29 05:18:39;;;;;;;0.73;0.40;;;23.00;59.90;;;;;;4491764;31;20130;-67
2022/06/29 05:21:06;;;;;;;0.73;0.30;;;23.00;59.90;;;;;;4492302;31;20631;-67
2022/06/29 05:23:37;;;;;;;1.30;0.30;;;23.00;59.90;;;;;;4492333;31;20077;-67
2022/06/29 05:26:03;;;;;;;0.40;0.30;;;23.00;59.90;;;;;;4491839;31;20135;-66
2022/06/29 05:28:29;;;;;;;0.60;0.30;;;23.00;59.90;;;;;;4492126;31;20073;-66
2022/06/29 05:30:54;;;;;;;0.40;0.30;;;23.00;59.90;;;;;;4492090;31;20162;-66
2022/06/29 05:33:20;;;;;;;0.38;0.30;;;23.00;59.90;;;;;;4490791;31;20073;-67
2022/06/29 05:35:46;;;;;;;0.40;0.35;;;23.00;59.90;;;;;;4491903;31;20100;-67
2022/06/29 05:38:12;;;;;;;0.32;0.30;;;23.00;59.90;;;;;;4492079;31;20532;-67
2022/06/29 05:40:38;;;;;;;0.40;0.20;;;23.00;60.00;;;;;;4491913;31;20069;-67
2022/06/29 05:43:04;;;;;;;1.00;0.20;;;23.00;59.90;;;;;;4492313;31;20166;-66
2022/06/29 05:45:30;;;;;;;0.50;0.20;;;23.00;59.90;;;;;;4491546;31;20081;-67
2022/06/29 05:47:56;;;;;;;0.38;0.25;;;23.00;59.90;;;;;;4490914;31;20116;-66
2022/06/29 05:50:23;;;;;;;0.77;0.30;;;23.00;59.90;;;;;;4491906;31;20077;-66
2022/06/29 05:52:50;;;;;;;0.30;0.20;;;23.00;59.90;;;;;;4490601;31;20158;-67
2022/06/29 05:55:15;;;;;;;0.50;0.30;;;23.00;60.00;;;;;;4492171;32;20529;-67
2022/06/29 05:57:41;;;;;;;0.32;0.20;;;23.00;59.90;;;;;;4491680;32;20077;-67
2022/06/29 06:00:08;;;;;;;0.38;0.30;;;23.00;59.90;;;;;;4491899;32;20088;-67
2022/06/29 06:02:34;;;;;;;0.30;0.30;;;23.00;59.90;;;;;;4492146;32;20061;-67
2022/06/29 06:04:59;;;;;;;0.40;0.20;;;23.00;59.90;;;;;;4491865;32;20068;-67
2022/06/29 06:07:25;;;;;;;0.55;0.20;;;23.00;59.90;;;;;;4492084;32;20092;-67
2022/06/29 06:09:51;;;;;;;0.47;0.20;;;23.00;60.00;;;;;;4491714;32;20080;-67
2022/06/29 06:12:17;;;;;;;0.80;0.30;;;23.00;60.00;;;;;;4490524;32;20170;-67
2022/06/29 06:14:43;;;;;;;1.17;0.28;;;23.00;60.00;;;;;;4491780;32;20198;-67
2022/06/29 06:17:09;;;;;;;0.22;0.20;;;23.00;60.00;;;;;;4490492;32;20078;-66
2022/06/29 06:19:35;;;;;;;0.93;0.32;;;23.00;60.00;;;;;;4491755;32;20081;-67
2022/06/29 06:22:02;;;;;;;0.30;0.20;;;23.00;60.00;;;;;;4490422;32;20549;-67
2022/06/29 06:24:27;;;;;;;0.45;0.30;;;23.00;60.00;;;;;;4491557;32;20092;-67
2022/06/29 06:26:54;;;;;;;0.52;0.30;;;23.10;60.00;;;;;;4491703;32;20066;-67
2022/06/29 06:29:20;;;;;;;0.95;0.43;;;23.10;60.00;;;;;;4491881;31;20104;-67
2022/06/29 06:31:46;;;;;;;0.43;0.20;;;23.10;60.00;;;;;;4493562;31;20532;-69
2022/06/29 06:34:12;;;;;;;0.47;0.40;;;23.10;60.00;;;;;;4494720;31;20498;-69
2022/06/29 06:36:38;;;;;;;2.08;0.43;;;23.10;60.00;;;;;;4494732;31;20077;-69
2022/06/29 06:39:04;;;;;;;0.80;0.30;;;23.20;60.00;;;;;;4493335;31;20406;-69
2022/06/29 06:41:30;;;;;;;0.70;0.30;;;23.20;60.00;;;;;;4494917;31;20187;-69
2022/06/29 06:43:58;;;;;;;2.75;0.60;;;23.30;60.00;;;;;;4494749;31;20080;-69
2022/06/29 06:46:24;;;;;;;1.30;0.57;;;23.30;60.00;;;;;;4495221;31;20077;-69
2022/06/29 06:48:51;;;;;;;3.38;0.60;;;23.40;60.10;;;;;;4495441;31;20072;-69
2022/06/29 06:51:22;;;;;;;1.98;0.70;;;23.40;60.00;;;;;;4496263;31;20206;-69
2022/06/29 06:53:49;;;;;;;2.65;0.50;;;23.40;60.10;;;;;;4496421;31;20061;-69
2022/06/29 06:56:15;;;;;;;2.60;0.90;;;23.50;60.10;;;;;;4494982;31;20422;-70
2022/06/29 06:59:00;;;;;;;2.30;0.80;;;23.50;60.00;;;;;;4493772;31;20073;-69
2022/06/29 07:01:26;;;;;;;1.45;0.60;;;23.60;60.00;;;;;;4494588;31;20442;-69
2022/06/29 07:03:53;;;;;;;3.28;0.80;;;23.60;60.10;;;;;;4494508;31;20080;-69
2022/06/29 07:06:19;;;;;;;2.00;0.88;;;23.60;60.20;;;;;;4494253;31;20099;-69
2022/06/29 07:08:46;;;;;;;1.95;0.70;;;23.70;60.10;;;;;;4494232;31;20473;-69
2022/06/29 07:11:13;;;;;;;3.58;0.88;;;23.70;60.00;;;;;;4494120;31;20277;-70
2022/06/29 07:13:38;;;;;;;2.45;0.60;;;23.80;60.00;;;;;;4492839;31;20100;-69
2022/06/29 07:16:05;;;;;;;2.67;0.77;;;23.80;59.90;;;;;;4494081;31;20077;-69
2022/06/29 07:18:32;;;;;;;1.00;0.73;;;23.80;59.80;;;;;;4494165;31;20132;-69
2022/06/29 07:20:59;;;;;;;1.90;0.80;;;23.90;60.50;;;;;;4494018;31;20073;-68
2022/06/29 07:23:27;;;;;;;3.05;0.90;;;23.90;59.50;;;;;;4493985;31;20096;-69
2022/06/29 07:25:54;;;;;;;2.08;0.60;;;23.90;59.40;;;;;;4494236;31;20080;-69
2022/06/29 07:28:20;;;;;;;1.48;0.75;;;24.00;59.20;;;;;;4493660;31;20191;-69
2022/06/29 07:30:46;;;;;;;2.72;0.80;;;24.00;59.10;;;;;;4493804;31;20171;-69
2022/06/29 07:33:12;;;;;;;1.73;0.90;;;24.00;58.90;;;;;;4492664;31;20514;-68
2022/06/29 07:35:38;;;;;;;1.25;0.73;;;24.10;58.80;;;;;;4494059;31;20160;-68
2022/06/29 07:38:05;;;;;;;3.58;1.00;;;24.10;58.70;;;;;;4493781;31;20073;-68
2022/06/29 07:40:32;;;;;;;2.17;0.80;;;24.10;58.30;;;;;;4493533;31;20214;-70
2022/06/29 07:42:57;;;;;;;1.90;0.88;;;24.20;58.30;;;;;;4493265;31;20073;-68
2022/06/29 07:45:23;;;;;;;3.53;1.48;;;24.20;58.10;;;;;;4493230;31;20418;-68
2022/06/29 07:47:50;;;;;;;3.05;1.00;;;24.20;57.80;;;;;;4493624;31;20140;-68
2022/06/29 07:50:15;;;;;;;2.63;0.98;;;24.20;57.50;;;;;;4492562;31;20167;-69
2022/06/29 07:52:42;;;;;;;1.83;0.90;;;24.20;57.40;;;;;;4493547;31;20475;-69
2022/06/29 07:55:09;;;;;;;2.15;1.10;;;24.30;57.50;;;;;;4493406;31;20073;-69
2022/06/29 07:57:35;;;;;;;2.55;0.90;;;24.30;57.50;;;;;;4493494;31;20100;-68
2022/06/29 08:00:03;;;;;;;1.90;0.90;;;24.30;57.50;;;;;;4493408;31;20100;-69
2022/06/29 08:02:29;;;;;;;3.38;1.08;;;24.40;57.50;;;;;;4493390;31;20124;-69
2022/06/29 08:04:54;;;;;;;1.92;1.10;;;24.40;57.50;;;;;;4493385;31;20079;-69
2022/06/29 08:07:20;;;;;;;3.45;1.10;;;24.40;57.30;;;;;;4493329;31;20483;-69
2022/06/29 08:09:46;;;;;;;1.92;1.17;;;24.40;57.20;;;;;;4493568;31;20089;-69
2022/06/29 08:12:12;;;;;;;1.73;1.05;;;24.50;57.10;;;;;;4493265;31;20080;-69
2022/06/29 08:14:38;;;;;;;2.88;1.20;;;24.50;57.00;;;;;;4493184;31;20083;-69
2022/06/29 08:17:04;;;;;;;3.95;1.30;;;24.60;56.70;;;;;;4493056;31;20198;-69
2022/06/29 08:19:30;;;;;;;3.95;1.13;;;24.60;57.20;;;;;;4492793;31;20384;-68
2022/06/29 08:21:55;;;;;;;1.25;0.98;;;24.70;56.20;;;;;;4493144;31;20069;-68
2022/06/29 08:24:22;;;;;;;1.58;0.88;;;24.70;56.00;;;;;;4493088;31;20600;-68
2022/06/29 08:26:48;;;;;;;1.70;1.00;;;24.70;56.00;;;;;;4493277;31;20194;-70
2022/06/29 08:29:13;;;;;;;2.25;1.25;;;24.70;56.00;;;;;;4492878;31;20065;-69
2022/06/29 08:31:39;;;;;;;3.15;1.35;;;24.70;56.10;;;;;;4493182;31;20069;-68
2022/06/29 08:34:07;;;;;;;3.75;1.40;;;24.70;56.00;;;;;;4492881;31;20398;-68
2022/06/29 08:36:33;;;;;;;6.03;1.30;;;24.80;56.20;;;;;;4493049;31;20077;-69
2022/06/29 08:39:01;;;;;;;4.55;1.10;;;24.80;56.10;;;;;;4492789;31;20062;-68
2022/06/29 08:41:30;;;;;;;2.97;1.27;;;24.80;56.10;;;;;;4492514;31;20490;-68
2022/06/29 08:43:59;;;;;;;2.47;1.08;;;24.80;56.10;;;;;;4492283;31;20088;-69
2022/06/29 08:46:25;;;;;;;1.85;1.25;;;24.90;56.10;;;;;;4492691;31;20541;-69
2022/06/29 08:48:51;;;;;;;2.03;1.20;;;24.90;56.00;;;;;;4492530;31;20069;-68
2022/06/29 08:51:19;;;;;;;1.85;1.00;;;24.90;56.00;;;;;;4492616;31;20447;-67
2022/06/29 08:53:45;;;;;;;2.67;1.17;;;25.00;56.00;;;;;;4491569;31;20085;-69
2022/06/29 08:56:12;;;;;;;4.38;1.33;;;25.00;55.90;;;;;;4492527;31;20081;-69
2022/06/29 08:58:40;;;;;;;4.50;1.25;;;25.00;55.90;;;;;;4492745;31;20069;-68
2022/06/29 09:01:06;;;;;;;3.42;1.20;;;25.00;55.70;;;;;;4492418;31;20206;-69
2022/06/29 09:03:32;;;;;;;1.98;1.10;;;25.00;55.60;;;;;;4492477;31;20075;-69
2022/06/29 09:06:00;;;;;;;2.47;1.10;;;25.00;55.50;;;;;;4492142;31;20116;-69
2022/06/29 09:08:25;;;;;;;3.63;1.20;;;25.00;55.50;;;;;;4492237;31;20142;-69
2022/06/29 09:10:52;;;;;;;1.85;1.08;;;25.00;55.50;;;;;;4492633;31;20057;-69
2022/06/29 09:13:22;;;;;;;2.35;1.10;;;25.10;55.50;;;;;;4492707;31;20554;-67
2022/06/29 09:15:59;;;;;;;4.10;1.50;;;25.00;55.50;;;;;;4492363;31;20061;-68
2022/06/29 09:18:30;;;;;;;4.53;1.35;;;25.10;55.70;;;;;;4492272;31;20081;-69
2022/06/29 09:21:02;;;;;;;3.30;1.30;;;25.10;55.70;;;;;;4492419;31;20580;-68
2022/06/29 09:23:28;;;;;;;2.90;1.02;;;25.10;55.80;;;;;;4492416;31;20120;-68
2022/06/29 09:25:56;;;;;;;6.72;1.10;;;25.10;55.80;;;;;;4492285;31;20097;-69
2022/06/29 09:28:24;;;;;;;1.95;1.17;;;25.10;55.80;;;;;;4492492;31;20069;-70
2022/06/29 09:30:52;;;;;;;3.83;1.20;;;25.10;55.70;;;;;;4492056;31;20096;-68
2022/06/29 09:33:21;;;;;;;2.88;1.00;;;25.10;55.50;;;;;;4491841;31;20077;-68
2022/06/29 09:36:10;;;;;;;3.30;1.00;;;25.10;55.50;;;;;;4492152;31;20686;-69
2022/06/29 09:38:38;;;;;;;3.05;1.30;;;25.10;55.00;;;;;;4492418;31;20080;-68
2022/06/29 09:41:09;;;;;;;5.10;1.15;;;25.10;55.10;;;;;;4492173;31;20061;-67
2022/06/29 09:43:40;;;;;;;4.28;1.13;;;25.10;54.80;;;;;;4492125;31;20099;-69
2022/06/29 09:46:08;;;;;;;2.58;1.13;;;25.20;54.70;;;;;;4491120;31;20231;-69
2022/06/29 09:48:36;;;;;;;1.60;1.10;;;25.20;54.70;;;;;;4491943;31;20139;-70
2022/06/29 09:51:30;;;;;;;1.83;1.00;;;25.20;54.50;;;;;;4491978;31;20551;-69
2022/06/29 09:53:54;;;;;;;2.17;1.00;;;25.20;55.40;;;;;;4491850;31;20096;-69
2022/06/29 09:56:21;;;;;;;2.22;0.98;;;25.20;54.40;;;;;;4491784;32;20083;-69
2022/06/29 09:58:48;;;;;;;2.75;1.02;;;25.30;54.40;;;;;;4491915;32;20132;-69
2022/06/29 10:04:02;;;;;;;2.67;1.35;;;25.20;54.00;;;;;;4492186;32;20077;-68
2022/06/29 10:06:28;;;;;;;2.15;1.20;;;25.30;54.10;;;;;;4494872;31;20073;-68
2022/06/29 10:08:56;;;;;;;3.17;1.33;;;25.30;54.00;;;;;;4493790;31;20085;-68
2022/06/29 10:14:47;;;;;;;1.90;1.00;;;25.30;53.90;;;;;;4494945;31;20078;-68
2022/06/29 10:17:40;;;;;;;1.27;1.00;;;25.30;54.00;;;;;;4493820;31;20077;-68
2022/06/29 10:20:09;;;;;;;3.25;1.10;;;25.30;53.80;;;;;;4495106;31;20469;-68
2022/06/29 10:22:35;;;;;;;2.25;1.20;;;25.30;54.00;;;;;;4494772;31;20073;-68
2022/06/29 10:25:03;;;;;;;4.50;1.30;;;25.30;53.90;;;;;;4494671;31;20079;-68
2022/06/29 10:27:30;;;;;;;1.40;1.20;;;25.30;53.90;;;;;;4493544;31;20093;-69
2022/06/29 10:30:21;;;;;;;2.40;1.58;;;25.40;53.90;;;;;;4494678;31;20065;-68
2022/06/29 10:32:48;;;;;;;2.42;1.20;;;25.40;53.70;;;;;;4494804;31;20112;-69
2022/06/29 10:35:14;;;;;;;1.25;1.15;;;25.40;53.80;;;;;;4494807;31;20128;-69
2022/06/29 10:37:52;;;;;;;1.63;1.10;;;25.40;53.70;;;;;;4494581;31;20112;-69
2022/06/29 10:40:19;;;;;;;2.95;1.15;;;25.50;53.80;;;;;;4493818;31;20579;-69
2022/06/29 10:45:41;;;;;;;4.03;1.10;;;25.50;53.80;;;;;;4494375;31;20150;-69
2022/06/29 10:48:07;;;;;;;4.10;1.00;;;25.50;53.60;;;;;;4494791;31;20076;-69
2022/06/29 10:50:35;;;;;;;1.30;0.98;;;25.50;53.60;;;;;;4494371;31;20091;-69
2022/06/29 10:53:14;;;;;;;2.15;1.20;;;25.50;53.50;;;;;;4494538;31;20510;-68
2022/06/29 10:55:55;;;;;;;1.30;1.17;;;25.50;53.20;;;;;;4494576;31;20065;-68
2022/06/29 10:58:22;;;;;;;1.95;1.10;;;25.50;53.10;;;;;;4494156;31;20166;-68
2022/06/29 11:00:53;;;;;;;2.67;0.98;;;25.50;53.10;;;;;;4494234;31;20104;-68
2022/06/29 11:03:25;;;;;;;3.85;1.33;;;25.50;53.10;;;;;;4494398;31;20085;-69
2022/06/29 11:16:56;;;;;;;1.67;1.10;;;25.60;52.80;;;;;;4493636;31;20080;-68
2022/06/29 11:19:36;;;;;;;4.95;1.20;;;25.60;52.80;;;;;;4493735;31;20087;-68
2022/06/29 11:22:18;;;;;;;2.28;1.25;;;25.60;52.70;;;;;;4493924;31;20194;-68
2022/06/29 11:24:51;;;;;;;3.22;1.40;;;25.50;52.50;;;;;;4494270;31;20128;-68
2022/06/29 11:27:35;;;;;;;2.03;1.40;;;25.60;52.70;;;;;;4493948;31;20127;-68
2022/06/29 11:30:07;;;;;;;2.55;1.30;;;25.60;52.40;;;;;;4492555;31;20089;-68
2022/06/29 11:32:45;;;;;;;1.55;1.10;;;25.60;52.70;;;;;;4494345;31;20073;-69
2022/06/29 11:35:13;;;;;;;2.33;1.23;;;25.60;52.50;;;;;;4494031;31;20516;-69
2022/06/29 11:37:49;;;;;;;3.13;1.42;;;25.60;52.70;;;;;;4493647;31;20104;-71
2022/06/29 11:40:33;;;;;;;3.08;1.83;;;25.60;52.60;;;;;;4493663;31;20077;-69
2022/06/29 11:43:10;;;;;;;1.92;1.48;;;25.60;52.60;;;;;;4494165;31;20092;-68
2022/06/29 11:45:49;;;;;;;2.38;1.13;;;25.60;52.70;;;;;;4493651;31;20398;-69
2022/06/29 11:48:26;;;;;;;1.80;1.58;;;25.60;52.70;;;;;;4493711;31;20223;-69
2022/06/29 11:51:00;;;;;;;4.53;1.38;;;25.60;52.60;;;;;;4493846;31;20495;-70
2022/06/29 11:53:47;;;;;;;3.53;1.55;;;25.60;52.70;;;;;;4493641;31;20073;-69
2022/06/29 11:56:19;;;;;;;3.53;1.48;;;25.70;52.70;;;;;;4493684;31;20085;-69
2022/06/29 11:58:49;;;;;;;2.30;1.40;;;25.70;52.70;;;;;;4493255;31;20514;-69
2022/06/29 12:01:18;;;;;;;2.72;1.70;;;25.70;52.70;;;;;;4493676;31;20081;-70
2022/06/29 12:03:49;;;;;;;4.60;1.60;;;25.70;52.70;;;;;;4493544;31;20073;-70
2022/06/29 12:06:16;;;;;;;2.22;1.52;;;25.70;52.70;;;;;;4493650;31;20502;-68
2022/06/29 12:08:42;;;;;;;2.80;1.50;;;25.70;52.70;;;;;;4493022;31;20215;-69
2022/06/29 12:11:08;;;;;;;1.83;1.40;;;25.70;52.50;;;;;;4493237;31;20109;-69
2022/06/29 12:13:33;;;;;;;3.22;1.55;;;25.70;53.40;;;;;;4493259;31;20093;-68
2022/06/29 12:15:59;;;;;;;2.60;1.40;;;25.70;52.40;;;;;;4493113;31;20077;-68
2022/06/29 12:18:25;;;;;;;1.52;1.27;;;25.70;52.30;;;;;;4493019;31;20088;-68
2022/06/29 12:20:51;;;;;;;1.83;1.55;;;25.80;52.30;;;;;;4493108;31;20084;-69
2022/06/29 12:23:17;;;;;;;2.53;1.52;;;25.80;52.20;;;;;;4493027;31;20084;-69
2022/06/29 12:25:44;;;;;;;2.65;1.30;;;25.80;52.10;;;;;;4492852;31;20089;-70
2022/06/29 12:28:10;;;;;;;1.75;1.50;;;25.80;52.10;;;;;;4492942;31;20089;-68
2022/06/29 12:30:36;;;;;;;1.50;1.30;;;25.80;51.90;;;;;;4493236;31;20100;-69
2022/06/29 12:33:09;;;;;;;1.85;1.42;;;25.80;51.80;;;;;;4492908;31;20085;-69
2022/06/29 12:35:39;;;;;;;2.00;1.33;;;25.80;51.60;;;;;;4492931;31;20426;-69
2022/06/29 12:38:05;;;;;;;2.10;1.35;;;25.80;51.50;;;;;;4492913;31;20092;-69
2022/06/29 12:40:31;;;;;;;2.35;1.40;;;25.80;51.30;;;;;;4492874;31;20131;-69
2022/06/29 12:42:57;;;;;;;1.65;1.08;;;25.80;51.30;;;;;;4492872;31;20099;-68
2022/06/29 12:45:24;;;;;;;3.90;1.30;;;25.80;51.10;;;;;;4492571;31;20551;-68
2022/06/29 12:47:51;;;;;;;2.45;1.52;;;25.90;51.10;;;;;;4492829;31;20099;-68
2022/06/29 12:50:17;;;;;;;3.42;1.40;;;25.90;51.10;;;;;;4492816;31;20073;-68
2022/06/29 12:52:46;;;;;;;1.98;1.50;;;25.90;51.00;;;;;;4493029;31;20069;-69
2022/06/29 12:55:13;;;;;;;5.93;1.35;;;25.90;51.00;;;;;;4492554;31;20061;-70
2022/06/29 12:57:43;;;;;;;1.92;1.20;;;25.90;50.90;;;;;;4492829;31;20099;-70
2022/06/29 13:00:11;;;;;;;2.22;1.25;;;25.90;50.90;;;;;;4492530;31;20095;-69
2022/06/29 13:02:37;;;;;;;3.22;1.48;;;25.90;50.90;;;;;;4491637;31;20214;-68
2022/06/29 13:05:04;;;;;;;3.00;1.40;;;26.00;51.00;;;;;;4492498;31;20414;-69
2022/06/29 13:07:30;;;;;;;1.38;1.27;;;26.00;50.90;;;;;;4492448;31;20618;-68
2022/06/29 13:09:57;;;;;;;1.80;1.52;;;26.00;50.80;;;;;;4491613;31;20509;-70
2022/06/29 13:12:25;;;;;;;3.53;1.58;;;26.00;50.90;;;;;;4492481;31;20092;-69